aviador You're here:

PAIG Decoded Metar

IGIUGIG in AK, USA
Report Time2017-09-26 02:56:00
UTC Time2017-09-26 03:34:03
Flight Rules vfr VFR
Wind060° at 10 Gusting to 17 kt
W.Decomp.*RWY 05: 9.9 kt HW 1.6 kt LCW
W.Rank060° ranks 1
Current wind is below 060° avg. (10.1)
Visibility9999 m
Phenomena:N/A
Clouds:Few 050 Hf
Expected CloudBase > 2,400 ft AGL from Temp-Dew spread
CeilingNone
Temp10°C (ISA -5)
Dew Point04°C (67% RH)
AAT5.1°C
QNH1008 hPa
Density Alt-203 ft
Elevation92 ft
Report Wrong Elevation
Raw Report
PAIG 260256Z AUTO 06010G17KT 10SM FEW050 10/04 A2977 RMK AO2
SLP094 T01000044 56001 $=

Extra information for PAIG:More info

Metar Taf Metar & Taf Last 4 Metars F.Rules Stats Wind Profile Meteogram Temp Stats Airport Information Weather charts Add Link Nearby VenuesMetar ALERT Operation Metar Decoded Social comments

AIRNAV info for PAIG